Time;durP1;ratioP1;P1;durP2;ratioP2;P2;SDS_P1;SDS_P2;PMS_P1;PMS_P2;Temp;Humidity;BMP_temperature;BMP_pressure;BME280_temperature;BME280_humidity;BME280_pressure;Samples;Min_cycle;Max_cycle;Signal;HPM_P1;HPM_P2
2023/04/15 00:00:16;;;;;;;5.85;3.50;;;3.30;99.90;;;;;;487296;244;27467;-74
2023/04/15 00:02:17;;;;;;;8.30;3.85;;;3.40;99.90;;;;;;487225;244;27399;-74
2023/04/15 00:04:18;;;;;;;7.10;3.47;;;3.20;99.90;;;;;;487211;244;27459;-75
2023/04/15 00:06:19;;;;;;;4.45;3.08;;;3.20;99.90;;;;;;487110;244;27476;-75
2023/04/15 00:08:20;;;;;;;5.15;3.00;;;3.10;99.90;;;;;;487238;244;27491;-74
2023/04/15 00:10:22;;;;;;;4.00;2.40;;;3.10;99.90;;;;;;487281;244;27430;-74
2023/04/15 00:12:23;;;;;;;4.72;3.15;;;3.00;99.90;;;;;;487235;244;27550;-74
2023/04/15 00:14:25;;;;;;;5.15;2.90;;;3.00;99.90;;;;;;487148;244;27474;-74
2023/04/15 00:16:25;;;;;;;6.50;3.05;;;3.00;99.90;;;;;;487223;244;27932;-74
2023/04/15 00:18:28;;;;;;;4.40;2.70;;;3.00;99.90;;;;;;487236;244;27906;-74
2023/04/15 00:20:28;;;;;;;4.90;3.33;;;3.00;99.90;;;;;;487173;244;28010;-75
2023/04/15 00:22:29;;;;;;;6.85;3.10;;;3.00;99.90;;;;;;487272;243;27850;-75
2023/04/15 00:24:31;;;;;;;4.10;2.60;;;2.90;99.90;;;;;;487179;244;27466;-74
2023/04/15 00:26:32;;;;;;;4.05;2.40;;;2.90;99.90;;;;;;487226;244;27402;-74
2023/04/15 00:28:33;;;;;;;4.12;2.60;;;3.00;99.90;;;;;;487250;244;27467;-75
2023/04/15 00:30:34;;;;;;;5.30;3.15;;;2.90;99.90;;;;;;487306;244;27458;-74
2023/04/15 00:32:35;;;;;;;4.80;3.55;;;2.90;99.90;;;;;;487263;244;27395;-75
2023/04/15 00:34:37;;;;;;;5.93;3.70;;;3.00;99.90;;;;;;487110;244;27439;-75
2023/04/15 00:36:38;;;;;;;9.15;4.30;;;2.80;99.90;;;;;;487226;244;27497;-75
2023/04/15 00:38:39;;;;;;;9.95;3.70;;;2.80;99.90;;;;;;487258;244;27442;-74
2023/04/15 00:40:40;;;;;;;5.03;3.25;;;2.70;99.90;;;;;;487298;244;27541;-75
2023/04/15 00:42:42;;;;;;;7.53;3.97;;;2.80;99.90;;;;;;487279;244;27415;-75
2023/04/15 00:44:43;;;;;;;4.72;2.97;;;2.80;99.90;;;;;;487194;244;27919;-75
2023/04/15 00:46:44;;;;;;;5.10;3.08;;;3.00;99.90;;;;;;487259;244;27847;-74
2023/04/15 00:48:45;;;;;;;5.07;3.00;;;2.80;99.90;;;;;;487257;244;27996;-74
2023/04/15 00:50:47;;;;;;;7.95;3.58;;;2.90;99.90;;;;;;487291;244;28970;-74
2023/04/15 00:52:48;;;;;;;7.82;2.67;;;2.70;99.90;;;;;;487300;244;27486;-75
2023/04/15 00:54:51;;;;;;;4.72;2.70;;;2.80;99.90;;;;;;487228;244;27471;-75
2023/04/15 00:56:50;;;;;;;5.57;2.75;;;2.70;99.90;;;;;;487185;243;27526;-74
2023/04/15 00:58:52;;;;;;;3.50;2.30;;;2.80;99.90;;;;;;487269;244;27430;-74
2023/04/15 01:00:53;;;;;;;3.58;2.28;;;2.80;99.90;;;;;;487304;244;27779;-75
2023/04/15 01:02:54;;;;;;;2.65;2.05;;;2.80;99.90;;;;;;487315;244;27451;-75
2023/04/15 01:04:55;;;;;;;4.37;2.40;;;2.60;99.90;;;;;;487213;244;27450;-74
2023/04/15 01:06:57;;;;;;;3.58;2.00;;;2.70;99.90;;;;;;487257;244;27443;-75
2023/04/15 01:08:58;;;;;;;4.40;2.55;;;2.80;99.90;;;;;;487246;244;27454;-75
2023/04/15 01:11:00;;;;;;;6.12;2.00;;;2.80;99.90;;;;;;487231;244;27495;-75
2023/04/15 01:13:00;;;;;;;7.05;2.47;;;2.80;99.90;;;;;;487230;244;27855;-72
2023/04/15 01:15:02;;;;;;;4.28;2.28;;;2.80;99.90;;;;;;487143;244;27943;-72
2023/04/15 01:17:03;;;;;;;3.15;2.08;;;2.80;99.90;;;;;;487220;244;28040;-72
2023/04/15 01:19:04;;;;;;;3.22;2.10;;;2.60;99.90;;;;;;487222;243;27978;-72
2023/04/15 01:21:05;;;;;;;3.65;2.28;;;2.70;99.90;;;;;;487303;244;27418;-72
2023/04/15 01:23:07;;;;;;;2.45;2.00;;;2.50;99.90;;;;;;487299;244;27396;-72
2023/04/15 01:25:08;;;;;;;3.83;2.35;;;2.60;99.90;;;;;;487201;244;27547;-72
2023/04/15 01:27:09;;;;;;;4.65;2.60;;;2.60;99.90;;;;;;487251;244;27463;-72
2023/04/15 01:29:10;;;;;;;3.62;2.35;;;2.50;99.90;;;;;;487231;243;27501;-72
2023/04/15 01:31:12;;;;;;;5.53;2.40;;;2.50;99.90;;;;;;487298;244;27833;-72
2023/04/15 01:33:13;;;;;;;2.30;2.20;;;2.60;99.90;;;;;;487237;244;27959;-72
2023/04/15 01:35:14;;;;;;;2.87;2.33;;;2.40;99.90;;;;;;487176;244;27899;-72
2023/04/15 01:37:15;;;;;;;4.50;2.33;;;2.40;99.90;;;;;;487247;244;27866;-72
2023/04/15 01:39:17;;;;;;;4.10;2.00;;;2.20;99.90;;;;;;487274;244;27921;-72
2023/04/15 01:41:18;;;;;;;4.80;2.30;;;2.00;99.90;;;;;;487291;244;27427;-71
2023/04/15 01:43:19;;;;;;;2.65;2.05;;;2.20;99.90;;;;;;487270;244;27400;-72
2023/04/15 01:45:20;;;;;;;2.30;2.08;;;2.30;99.90;;;;;;487203;244;27430;-72
2023/04/15 01:47:22;;;;;;;2.67;1.95;;;2.30;99.90;;;;;;487270;243;27404;-72
2023/04/15 01:49:23;;;;;;;4.72;2.10;;;2.30;99.90;;;;;;487275;244;27528;-72
2023/04/15 01:51:24;;;;;;;5.60;2.15;;;2.30;99.90;;;;;;487276;244;27443;-73
2023/04/15 01:53:25;;;;;;;2.60;2.12;;;2.40;99.90;;;;;;487255;244;27395;-72
2023/04/15 01:55:27;;;;;;;2.85;2.20;;;2.30;99.90;;;;;;487129;244;27470;-72
2023/04/15 01:57:28;;;;;;;2.60;2.40;;;2.40;99.90;;;;;;487200;244;27400;-72
2023/04/15 01:59:30;;;;;;;4.40;2.53;;;2.30;99.90;;;;;;487230;244;27420;-72
2023/04/15 02:01:30;;;;;;;10.55;5.30;;;2.40;99.90;;;;;;487292;244;28005;-72
2023/04/15 02:03:32;;;;;;;11.73;5.40;;;2.10;99.90;;;;;;487265;243;28227;-72
2023/04/15 02:05:33;;;;;;;8.68;4.00;;;2.10;99.90;;;;;;487198;244;27941;-72
2023/04/15 02:07:34;;;;;;;7.75;4.00;;;2.10;99.90;;;;;;487266;244;27399;-72
2023/04/15 02:09:35;;;;;;;8.50;4.20;;;2.00;99.90;;;;;;487291;244;27403;-72
2023/04/15 02:11:38;;;;;;;6.53;3.00;;;2.10;99.90;;;;;;487269;244;27463;-72
2023/04/15 02:13:38;;;;;;;5.35;2.70;;;2.00;99.90;;;;;;487249;244;27393;-72
2023/04/15 02:15:39;;;;;;;5.20;2.97;;;1.90;99.90;;;;;;487219;244;27444;-72
2023/04/15 02:17:44;;;;;;;4.82;2.22;;;2.20;99.90;;;;;;487238;244;27530;-72
2023/04/15 02:19:42;;;;;;;7.03;2.78;;;1.80;99.90;;;;;;487021;244;27427;-72
2023/04/15 02:21:43;;;;;;;5.12;3.22;;;1.90;99.90;;;;;;487292;244;27475;-72
2023/04/15 02:23:46;;;;;;;4.90;3.00;;;1.90;99.90;;;;;;487304;244;27394;-72
2023/04/15 02:25:46;;;;;;;3.92;2.75;;;1.90;99.90;;;;;;487060;244;27434;-72
2023/04/15 02:27:47;;;;;;;4.37;2.97;;;1.90;99.90;;;;;;487265;244;28866;-72
2023/04/15 02:29:50;;;;;;;4.03;2.45;;;2.00;99.90;;;;;;487299;244;27971;-72
2023/04/15 02:31:49;;;;;;;5.10;2.60;;;2.10;99.90;;;;;;487213;244;27929;-72
2023/04/15 02:33:50;;;;;;;3.80;2.28;;;2.00;99.90;;;;;;487256;244;27854;-72
2023/04/15 02:35:52;;;;;;;4.57;2.40;;;2.10;99.90;;;;;;487178;244;27557;-72
2023/04/15 02:37:53;;;;;;;4.00;2.28;;;2.10;99.90;;;;;;487255;244;27419;-72
2023/04/15 02:39:54;;;;;;;6.05;2.50;;;2.20;99.90;;;;;;487256;244;27430;-72
2023/04/15 02:41:57;;;;;;;3.75;2.12;;;2.20;99.90;;;;;;487302;244;27514;-72
2023/04/15 02:43:57;;;;;;;5.15;2.15;;;2.00;99.90;;;;;;487127;244;27474;-72
2023/04/15 02:45:58;;;;;;;3.45;2.45;;;2.00;99.90;;;;;;487203;244;27561;-72
2023/04/15 02:48:04;;;;;;;3.00;1.98;;;1.90;99.90;;;;;;487221;244;27415;-72
2023/04/15 02:50:00;;;;;;;4.55;2.15;;;1.70;99.90;;;;;;486900;244;27523;-72
2023/04/15 02:52:02;;;;;;;3.20;2.10;;;1.70;99.90;;;;;;487232;244;27422;-72
2023/04/15 02:54:03;;;;;;;5.37;2.35;;;1.80;99.90;;;;;;487251;243;27509;-72
2023/04/15 02:56:05;;;;;;;2.00;1.90;;;1.90;99.90;;;;;;487185;244;27919;-72
2023/04/15 02:58:05;;;;;;;5.57;2.58;;;2.00;99.90;;;;;;487193;243;27966;-72
2023/04/15 03:00:08;;;;;;;5.03;2.25;;;2.00;99.90;;;;;;487277;244;27962;-72
2023/04/15 03:02:08;;;;;;;1.70;1.60;;;2.10;99.90;;;;;;487184;244;27926;-72
2023/04/15 03:04:09;;;;;;;4.03;2.45;;;2.00;99.90;;;;;;487222;243;27403;-72
2023/04/15 03:06:11;;;;;;;3.08;1.80;;;2.10;99.90;;;;;;487216;244;27530;-72
2023/04/15 03:08:13;;;;;;;5.30;2.00;;;2.00;99.90;;;;;;487235;244;27464;-72
2023/04/15 03:10:13;;;;;;;2.47;2.20;;;2.10;99.90;;;;;;487178;244;27462;-72
2023/04/15 03:12:14;;;;;;;2.35;2.15;;;2.10;99.90;;;;;;487282;244;27521;-72
2023/04/15 03:14:15;;;;;;;3.85;2.12;;;2.00;99.90;;;;;;487233;244;27451;-72
2023/04/15 03:16:17;;;;;;;4.93;2.70;;;2.00;99.90;;;;;;487189;244;27525;-72
2023/04/15 03:18:18;;;;;;;6.28;2.22;;;1.90;99.90;;;;;;487236;244;27399;-72
2023/04/15 03:20:19;;;;;;;3.62;1.92;;;1.90;99.90;;;;;;487282;243;27533;-72
2023/04/15 03:22:20;;;;;;;1.98;1.77;;;1.90;99.90;;;;;;487282;244;27547;-72
2023/04/15 03:24:22;;;;;;;3.53;2.30;;;2.00;99.90;;;;;;487206;244;27947;-72
2023/04/15 03:26:23;;;;;;;3.55;2.28;;;2.00;99.90;;;;;;487263;244;28033;-72
2023/04/15 03:28:24;;;;;;;5.07;2.05;;;1.90;99.90;;;;;;487235;244;28016;-72
2023/04/15 03:30:25;;;;;;;7.18;2.37;;;2.00;99.90;;;;;;487222;244;29062;-72
2023/04/15 03:32:27;;;;;;;2.65;2.08;;;2.00;99.90;;;;;;487236;244;27434;-72
2023/04/15 03:34:28;;;;;;;5.03;2.03;;;1.90;99.90;;;;;;487198;244;27474;-72
2023/04/15 03:36:31;;;;;;;3.83;2.35;;;1.90;99.90;;;;;;487248;244;27456;-72
2023/04/15 03:38:30;;;;;;;8.75;3.22;;;1.80;99.90;;;;;;487192;243;27442;-72
2023/04/15 03:40:32;;;;;;;4.43;2.55;;;1.80;99.90;;;;;;487297;244;27458;-72
2023/04/15 03:42:33;;;;;;;4.90;2.42;;;1.60;99.90;;;;;;487272;244;27441;-71
2023/04/15 03:44:35;;;;;;;3.08;2.10;;;1.70;99.90;;;;;;487182;244;27474;-71
2023/04/15 03:46:35;;;;;;;2.80;2.15;;;1.70;99.90;;;;;;487232;244;27426;-72
2023/04/15 03:48:37;;;;;;;5.80;3.17;;;1.60;99.90;;;;;;487257;243;27526;-72
2023/04/15 03:50:38;;;;;;;3.22;2.20;;;1.90;99.90;;;;;;487295;244;27467;-72
2023/04/15 03:52:39;;;;;;;2.50;2.30;;;1.70;99.90;;;;;;487284;244;27971;-72
2023/04/15 03:54:41;;;;;;;5.28;1.98;;;1.80;99.90;;;;;;487169;243;28080;-72
2023/04/15 03:56:42;;;;;;;10.00;5.05;;;1.60;99.90;;;;;;487253;244;28012;-72
2023/04/15 03:58:43;;;;;;;9.57;4.55;;;1.60;99.90;;;;;;487256;243;28288;-72
2023/04/15 04:00:44;;;;;;;7.72;4.28;;;1.70;99.90;;;;;;487290;244;27478;-71
2023/04/15 04:02:45;;;;;;;19.55;6.65;;;1.40;99.90;;;;;;487308;244;27455;-72
2023/04/15 04:04:47;;;;;;;16.35;6.93;;;1.40;99.90;;;;;;487184;244;27388;-72
2023/04/15 04:06:48;;;;;;;17.00;8.15;;;1.50;99.90;;;;;;487245;244;27430;-72
2023/04/15 04:08:49;;;;;;;15.82;5.90;;;1.40;99.90;;;;;;487281;244;27414;-72
2023/04/15 04:10:50;;;;;;;8.27;4.75;;;1.40;99.90;;;;;;487286;244;27400;-72
2023/04/15 04:12:52;;;;;;;8.32;3.60;;;1.30;99.90;;;;;;487248;244;27442;-71
2023/04/15 04:14:53;;;;;;;6.85;3.75;;;1.40;99.90;;;;;;487068;244;27454;-72
2023/04/15 04:16:54;;;;;;;5.32;3.47;;;1.20;99.90;;;;;;487247;244;28749;-72
2023/04/15 04:18:55;;;;;;;6.50;3.53;;;1.20;99.90;;;;;;487303;244;28070;-71
2023/04/15 04:20:57;;;;;;;7.90;3.58;;;1.20;99.90;;;;;;487291;244;27846;-72
2023/04/15 04:22:58;;;;;;;6.37;2.95;;;1.30;99.90;;;;;;487278;244;27998;-72
2023/04/15 04:25:01;;;;;;;6.70;2.95;;;1.00;99.90;;;;;;487198;244;27392;-72
2023/04/15 04:27:00;;;;;;;2.92;2.40;;;1.30;99.90;;;;;;487136;244;27434;-72
2023/04/15 04:29:02;;;;;;;3.65;2.75;;;1.30;99.90;;;;;;487310;243;27503;-72
2023/04/15 04:31:03;;;;;;;4.35;2.50;;;1.50;99.90;;;;;;487260;244;27427;-72
2023/04/15 04:33:04;;;;;;;4.32;2.87;;;1.40;99.90;;;;;;487278;244;27434;-72
2023/04/15 04:35:06;;;;;;;3.97;2.70;;;1.50;99.90;;;;;;487177;244;27412;-72
2023/04/15 04:37:07;;;;;;;9.20;3.75;;;1.40;99.90;;;;;;487229;244;27446;-72
2023/04/15 04:39:08;;;;;;;8.85;4.22;;;1.40;99.90;;;;;;487290;244;27459;-72
2023/04/15 04:41:09;;;;;;;6.55;4.00;;;1.40;99.90;;;;;;487277;244;27410;-71
2023/04/15 04:43:11;;;;;;;5.60;3.30;;;1.50;99.90;;;;;;487275;243;27469;-71
2023/04/15 04:45:12;;;;;;;6.37;3.15;;;1.40;99.90;;;;;;487186;244;28035;-72
2023/04/15 04:47:13;;;;;;;5.62;2.70;;;1.40;99.90;;;;;;487258;244;28010;-72
2023/04/15 04:49:14;;;;;;;6.87;3.45;;;1.50;99.90;;;;;;487258;244;29881;-72
2023/04/15 04:51:15;;;;;;;5.70;3.33;;;1.50;99.90;;;;;;487292;244;27848;-72
2023/04/15 04:53:17;;;;;;;13.30;6.78;;;1.50;99.90;;;;;;487244;244;27504;-72
2023/04/15 04:55:18;;;;;;;44.00;18.65;;;1.40;99.90;;;;;;487197;244;27387;-71
2023/04/15 04:57:19;;;;;;;21.52;11.15;;;1.40;99.90;;;;;;487264;244;27441;-71
2023/04/15 04:59:20;;;;;;;19.62;8.07;;;1.00;99.90;;;;;;487196;244;27418;-72
2023/04/15 05:01:22;;;;;;;23.77;11.60;;;1.30;99.90;;;;;;487290;244;27523;-72
2023/04/15 05:03:23;;;;;;;17.85;7.28;;;1.30;99.90;;;;;;487280;244;27466;-72
2023/04/15 05:05:25;;;;;;;13.02;6.90;;;1.30;99.90;;;;;;487236;244;27986;-72
2023/04/15 05:07:26;;;;;;;9.25;4.93;;;1.40;99.90;;;;;;487268;244;27890;-72
2023/04/15 05:09:27;;;;;;;10.52;4.20;;;1.40;99.90;;;;;;487275;244;27850;-72
2023/04/15 05:11:28;;;;;;;5.53;3.90;;;1.50;99.90;;;;;;487298;244;27402;-72
2023/04/15 05:13:29;;;;;;;6.85;3.60;;;1.60;99.90;;;;;;487288;244;27455;-72
2023/04/15 05:15:31;;;;;;;7.70;3.37;;;1.60;99.90;;;;;;487228;244;27391;-72
2023/04/15 05:17:34;;;;;;;4.32;3.35;;;1.80;99.90;;;;;;487256;244;27426;-72
2023/04/15 05:19:33;;;;;;;5.70;3.35;;;1.80;99.90;;;;;;487147;244;27426;-71
2023/04/15 05:21:34;;;;;;;5.53;3.20;;;1.80;99.90;;;;;;487293;243;27498;-72
2023/04/15 05:23:36;;;;;;;3.90;3.30;;;1.90;99.90;;;;;;487297;244;27446;-72
2023/04/15 05:25:37;;;;;;;4.53;2.95;;;1.90;99.90;;;;;;487204;244;27408;-72
2023/04/15 05:27:38;;;;;;;3.60;2.60;;;1.90;99.90;;;;;;487261;244;27571;-73
2023/04/15 05:29:39;;;;;;;6.60;3.25;;;2.00;99.90;;;;;;487235;244;27491;-72
2023/04/15 05:31:40;;;;;;;6.03;2.92;;;2.00;99.90;;;;;;487279;244;27882;-72
2023/04/15 05:33:42;;;;;;;3.97;3.35;;;2.00;99.90;;;;;;487312;244;27926;-72
2023/04/15 05:35:43;;;;;;;5.70;3.40;;;2.10;99.90;;;;;;487181;244;28008;-72
2023/04/15 05:37:44;;;;;;;5.32;3.72;;;2.00;99.90;;;;;;487258;244;27986;-72
2023/04/15 05:39:45;;;;;;;5.22;3.72;;;2.20;99.90;;;;;;487271;244;27677;-72
2023/04/15 05:41:47;;;;;;;8.57;3.85;;;2.20;99.90;;;;;;487278;244;27396;-72
2023/04/15 05:43:48;;;;;;;5.40;3.75;;;2.20;99.90;;;;;;487252;244;27444;-72
2023/04/15 05:45:49;;;;;;;7.18;3.33;;;2.40;99.90;;;;;;487188;244;27395;-73
2023/04/15 05:47:52;;;;;;;9.70;4.45;;;2.30;99.90;;;;;;487247;244;27427;-72
2023/04/15 05:49:52;;;;;;;10.45;5.80;;;2.50;99.90;;;;;;487172;244;27546;-72
2023/04/15 05:51:53;;;;;;;9.35;6.05;;;2.40;99.90;;;;;;487287;244;27436;-72
2023/04/15 05:53:54;;;;;;;8.15;5.90;;;2.40;99.90;;;;;;487272;244;27566;-72
2023/04/15 05:55:56;;;;;;;8.15;4.32;;;2.60;99.90;;;;;;487201;244;27466;-72
2023/04/15 05:57:57;;;;;;;6.70;4.22;;;2.50;99.90;;;;;;487224;244;27547;-72
2023/04/15 05:59:58;;;;;;;4.62;3.58;;;2.60;99.90;;;;;;487278;244;27991;-72
2023/04/15 06:01:59;;;;;;;5.68;3.62;;;2.70;99.90;;;;;;487301;244;27835;-72
2023/04/15 06:04:00;;;;;;;7.70;4.28;;;2.70;99.90;;;;;;487238;244;28022;-72
2023/04/15 06:06:02;;;;;;;5.93;4.20;;;2.70;99.90;;;;;;487199;244;27471;-72
2023/04/15 06:08:03;;;;;;;5.15;4.28;;;2.80;99.90;;;;;;487240;244;27434;-72
2023/04/15 06:10:04;;;;;;;6.37;4.62;;;2.90;99.90;;;;;;487269;244;27451;-72
2023/04/15 06:12:10;;;;;;;7.40;5.55;;;2.90;99.90;;;;;;487280;244;27493;-72
2023/04/15 06:14:07;;;;;;;6.22;5.15;;;3.00;99.90;;;;;;486856;244;27533;-72
2023/04/15 06:16:08;;;;;;;8.77;5.30;;;2.70;99.90;;;;;;487138;243;27426;-75
2023/04/15 06:18:10;;;;;;;7.93;4.70;;;3.10;99.90;;;;;;487219;244;27439;-74
2023/04/15 06:20:11;;;;;;;7.80;3.95;;;3.20;99.90;;;;;;487228;244;27848;-74
2023/04/15 06:22:12;;;;;;;8.88;4.53;;;3.30;99.90;;;;;;487267;244;27396;-74
2023/04/15 06:24:13;;;;;;;10.20;6.18;;;3.30;99.90;;;;;;487187;244;27537;-74
2023/04/15 06:26:14;;;;;;;7.37;5.43;;;3.50;99.90;;;;;;487219;244;27487;-74
2023/04/15 06:28:16;;;;;;;8.55;5.50;;;2.80;99.90;;;;;;487204;244;27474;-74
2023/04/15 06:30:17;;;;;;;8.85;5.72;;;3.70;99.90;;;;;;487251;244;27947;-74
2023/04/15 06:32:18;;;;;;;10.23;5.70;;;4.00;99.90;;;;;;487260;244;27975;-74
2023/04/15 06:34:19;;;;;;;7.22;4.90;;;4.00;99.90;;;;;;487223;244;28037;-74
2023/04/15 06:36:21;;;;;;;10.80;5.12;;;4.10;99.90;;;;;;487238;244;27467;-74
2023/04/15 06:38:22;;;;;;;7.65;5.15;;;4.40;99.90;;;;;;487282;244;27408;-74
2023/04/15 06:40:23;;;;;;;8.18;5.28;;;4.30;99.90;;;;;;487271;244;27450;-74
2023/04/15 06:42:24;;;;;;;8.23;4.75;;;4.50;99.90;;;;;;487249;244;27486;-74
2023/04/15 06:44:26;;;;;;;6.93;4.18;;;4.60;99.90;;;;;;487198;244;27447;-74
2023/04/15 06:46:27;;;;;;;5.80;2.95;;;4.70;99.90;;;;;;487276;244;27400;-74
2023/04/15 06:48:28;;;;;;;4.90;3.53;;;4.80;99.90;;;;;;487313;244;27506;-74
2023/04/15 06:50:29;;;;;;;4.78;2.95;;;5.00;99.90;;;;;;487299;244;27959;-74
2023/04/15 06:52:31;;;;;;;5.18;3.00;;;5.10;99.90;;;;;;487304;244;27858;-75
2023/04/15 06:54:32;;;;;;;3.95;2.90;;;5.20;99.90;;;;;;487227;244;27435;-74
2023/04/15 06:56:33;;;;;;;4.22;2.70;;;5.40;99.90;;;;;;487302;244;27439;-74
2023/04/15 06:58:35;;;;;;;3.87;2.50;;;5.60;99.90;;;;;;487332;244;27490;-75
2023/04/15 07:00:37;;;;;;;4.70;2.92;;;5.60;99.90;;;;;;487302;244;27459;-75
2023/04/15 07:02:37;;;;;;;3.83;2.47;;;6.30;99.90;;;;;;487152;244;27484;-74
2023/04/15 07:04:39;;;;;;;2.78;2.53;;;5.80;99.90;;;;;;487190;244;29282;-74
2023/04/15 07:06:40;;;;;;;3.70;2.70;;;5.90;99.90;;;;;;487301;244;28054;-75
2023/04/15 07:08:41;;;;;;;6.50;2.67;;;6.00;99.90;;;;;;487281;244;27485;-75
2023/04/15 07:10:42;;;;;;;4.18;2.30;;;6.20;99.90;;;;;;487265;244;28798;-74
2023/04/15 07:12:43;;;;;;;4.97;2.50;;;6.20;99.90;;;;;;487232;244;27434;-74
2023/04/15 07:14:44;;;;;;;6.53;2.10;;;6.30;99.90;;;;;;487215;244;27884;-74
2023/04/15 07:16:46;;;;;;;5.10;2.67;;;6.40;99.90;;;;;;487209;244;28099;-75
2023/04/15 07:18:47;;;;;;;4.83;2.93;;;6.50;99.90;;;;;;487305;244;29210;-74
2023/04/15 07:20:48;;;;;;;4.93;2.30;;;6.60;99.90;;;;;;487299;244;28431;-75
2023/04/15 07:22:49;;;;;;;9.03;2.60;;;6.90;99.90;;;;;;487274;244;28511;-75
2023/04/15 07:24:51;;;;;;;6.80;3.30;;;6.90;99.90;;;;;;487203;244;28468;-75
2023/04/15 07:26:52;;;;;;;5.20;2.53;;;7.00;99.90;;;;;;487283;244;28470;-75
2023/04/15 07:28:53;;;;;;;7.30;2.37;;;7.20;99.90;;;;;;487304;244;28517;-75
2023/04/15 07:30:56;;;;;;;7.97;2.97;;;7.40;99.90;;;;;;487285;244;28022;-75
2023/04/15 07:32:56;;;;;;;7.23;2.60;;;8.00;99.90;;;;;;487202;244;27977;-75
2023/04/15 07:34:57;;;;;;;7.93;2.47;;;8.50;99.90;;;;;;487186;244;27784;-75
2023/04/15 07:36:58;;;;;;;5.23;2.40;;;8.90;99.90;;;;;;487278;244;27894;-76
2023/04/15 07:39:02;;;;;;;5.60;2.50;;;9.40;99.90;;;;;;487300;244;27876;-75
2023/04/15 07:41:01;;;;;;;11.20;2.63;;;9.70;99.90;;;;;;487109;244;27909;-75
2023/04/15 07:43:02;;;;;;;7.43;2.27;;;9.90;99.90;;;;;;487251;244;28076;-75
2023/04/15 07:45:03;;;;;;;3.67;2.27;;;9.80;99.90;;;;;;487162;244;27885;-75
2023/04/15 07:47:05;;;;;;;6.17;2.47;;;10.00;99.90;;;;;;487239;244;27980;-75
2023/04/15 07:49:06;;;;;;;3.23;2.20;;;10.10;99.90;;;;;;487318;244;27947;-75
2023/04/15 07:51:07;;;;;;;4.30;2.60;;;10.20;99.90;;;;;;487287;244;27914;-75
2023/04/15 07:53:08;;;;;;;3.37;2.07;;;10.20;99.90;;;;;;487288;244;28535;-75
2023/04/15 07:55:10;;;;;;;2.50;2.30;;;10.30;99.90;;;;;;487214;244;28371;-75
2023/04/15 07:57:11;;;;;;;2.70;2.50;;;10.40;99.90;;;;;;487273;244;28464;-75
2023/04/15 07:59:14;;;;;;;3.13;2.17;;;10.50;99.90;;;;;;487294;244;28213;-75
2023/04/15 08:01:13;;;;;;;3.47;2.23;;;10.40;99.90;;;;;;487192;244;28001;-75
2023/04/15 08:03:15;;;;;;;5.40;2.10;;;10.50;99.90;;;;;;487237;244;27841;-75
2023/04/15 08:05:16;;;;;;;6.83;3.03;;;10.60;99.90;;;;;;487177;244;28132;-75
2023/04/15 08:07:17;;;;;;;9.80;3.67;;;10.70;99.90;;;;;;487311;244;28001;-75
2023/04/15 08:09:18;;;;;;;5.93;2.50;;;10.70;99.90;;;;;;487277;244;28002;-75
2023/04/15 08:11:20;;;;;;;6.70;2.53;;;10.80;99.90;;;;;;487281;244;27926;-75
2023/04/15 08:13:21;;;;;;;4.70;2.50;;;10.90;99.90;;;;;;487285;244;27996;-76
2023/04/15 08:15:22;;;;;;;4.17;2.47;;;10.90;99.90;;;;;;487221;244;28118;-75
2023/04/15 08:17:25;;;;;;;3.67;2.77;;;;;;;;;;487295;244;28679;-75
2023/04/15 08:19:26;;;;;;;3.53;2.10;;;10.80;99.90;;;;;;487299;243;27133;-75
2023/04/15 08:21:27;;;;;;;5.60;2.37;;;10.90;99.90;;;;;;487307;244;28045;-75
2023/04/15 08:23:28;;;;;;;7.47;2.40;;;11.00;99.90;;;;;;487286;244;28126;-75
2023/04/15 08:25:29;;;;;;;4.90;2.03;;;11.00;97.60;;;;;;487232;244;28364;-75
2023/04/15 08:27:31;;;;;;;6.60;2.10;;;11.10;96.80;;;;;;487294;244;28313;-75
2023/04/15 08:29:32;;;;;;;3.30;2.20;;;11.10;95.90;;;;;;487296;244;28680;-75
2023/04/15 08:31:33;;;;;;;3.50;1.90;;;11.20;96.20;;;;;;487291;244;28687;-75
2023/04/15 08:33:35;;;;;;;3.50;2.50;;;11.20;97.10;;;;;;487245;244;28719;-75
2023/04/15 08:35:36;;;;;;;6.17;2.90;;;11.40;99.30;;;;;;487214;244;28894;-76
2023/04/15 08:37:37;;;;;;;5.57;2.10;;;11.50;95.70;;;;;;487261;244;28192;-75
2023/04/15 08:39:38;;;;;;;1.73;1.63;;;11.60;95.20;;;;;;487260;244;28205;-76
2023/04/15 08:41:40;;;;;;;5.07;2.37;;;11.70;98.50;;;;;;487261;244;28178;-75
2023/04/15 08:43:41;;;;;;;3.80;2.30;;;11.70;94.70;;;;;;487264;244;28037;-75
2023/04/15 08:45:42;;;;;;;3.57;1.97;;;11.80;93.70;;;;;;487160;244;28383;-75
2023/04/15 08:47:43;;;;;;;3.63;2.37;;;11.70;93.60;;;;;;487314;244;28112;-76
2023/04/15 08:49:45;;;;;;;3.20;2.40;;;11.60;98.20;;;;;;487300;244;28579;-76
2023/04/15 08:51:46;;;;;;;4.67;2.37;;;11.50;91.20;;;;;;487271;244;28209;-76
2023/04/15 08:53:47;;;;;;;4.50;2.00;;;11.60;97.10;;;;;;487258;244;28514;-76
2023/04/15 08:55:48;;;;;;;3.03;2.17;;;11.60;90.10;;;;;;487149;244;28732;-75
2023/04/15 08:57:50;;;;;;;4.30;2.30;;;11.80;91.40;;;;;;487288;244;29006;-76
2023/04/15 08:59:51;;;;;;;2.57;2.07;;;11.90;96.90;;;;;;487298;244;28979;-76
2023/04/15 09:01:52;;;;;;;3.77;2.43;;;11.90;91.10;;;;;;487270;244;28443;-75
2023/04/15 09:03:53;;;;;;;4.97;2.10;;;11.90;96.00;;;;;;487292;244;28061;-76
2023/04/15 09:05:54;;;;;;;3.33;2.10;;;11.90;90.00;;;;;;487196;244;28279;-76
2023/04/15 09:07:56;;;;;;;3.17;1.90;;;12.00;92.00;;;;;;487306;244;28298;-75
2023/04/15 09:09:58;;;;;;;2.13;1.93;;;;;;;;;;487278;244;28405;-75
2023/04/15 09:12:00;;;;;;;4.97;2.40;;;11.90;91.00;;;;;;487286;244;26551;-75
2023/04/15 09:14:01;;;;;;;3.30;1.90;;;11.80;89.80;;;;;;487313;244;28902;-75
2023/04/15 09:16:03;;;;;;;4.90;2.23;;;12.00;87.20;;;;;;487275;244;28341;-75
2023/04/15 09:18:03;;;;;;;4.77;2.20;;;12.20;86.30;;;;;;487252;244;29168;-76
2023/04/15 09:20:04;;;;;;;5.83;2.63;;;12.30;88.10;;;;;;487207;244;28629;-76
2023/04/15 09:22:06;;;;;;;6.90;2.40;;;12.30;88.40;;;;;;487262;244;28557;-76
2023/04/15 09:24:08;;;;;;;3.37;2.50;;;;;;;;;;487278;244;28549;-76
2023/04/15 09:26:10;;;;;;;4.57;2.17;;;12.40;92.30;;;;;;487268;244;27239;-75
2023/04/15 09:28:11;;;;;;;4.93;2.67;;;12.50;94.30;;;;;;487277;243;28110;-76
2023/04/15 09:30:12;;;;;;;5.13;2.10;;;12.50;95.00;;;;;;487296;244;28369;-76
2023/04/15 09:32:13;;;;;;;5.57;2.20;;;12.50;84.90;;;;;;487330;244;28227;-76
2023/04/15 09:34:16;;;;;;;5.60;2.30;;;;;;;;;;487287;244;28308;-75
2023/04/15 09:36:17;;;;;;;6.07;2.17;;;12.60;92.10;;;;;;487247;243;27637;-75
2023/04/15 09:38:18;;;;;;;6.30;2.60;;;12.70;95.70;;;;;;487239;244;28370;-76
2023/04/15 09:40:19;;;;;;;4.57;2.33;;;12.70;83.90;;;;;;487305;244;28232;-76
2023/04/15 09:42:23;;;;;;;4.60;2.43;;;12.60;79.60;;;;;;487302;244;28269;-75
2023/04/15 09:44:22;;;;;;;3.07;2.20;;;12.40;93.70;;;;;;487052;244;28246;-76
2023/04/15 09:46:23;;;;;;;3.40;2.30;;;12.60;87.00;;;;;;487259;244;28357;-76
2023/04/15 09:48:26;;;;;;;2.53;2.23;;;;;;;;;;487281;244;28272;-76
2023/04/15 09:50:28;;;;;;;7.50;2.63;;;12.80;96.90;;;;;;487286;244;27071;-76
2023/04/15 09:52:29;;;;;;;5.83;2.37;;;12.80;95.90;;;;;;487260;244;28845;-76
2023/04/15 09:54:30;;;;;;;5.23;2.10;;;12.80;94.40;;;;;;487229;244;28454;-75
2023/04/15 09:56:31;;;;;;;6.90;2.20;;;12.90;86.00;;;;;;487324;244;28098;-76
2023/04/15 09:58:33;;;;;;;4.43;2.07;;;12.90;82.20;;;;;;487309;244;28502;-75
2023/04/15 10:00:34;;;;;;;2.63;2.00;;;12.90;93.40;;;;;;487269;243;28379;-76
2023/04/15 10:02:35;;;;;;;5.23;2.30;;;12.80;81.90;;;;;;487286;244;28866;-76
2023/04/15 10:04:36;;;;;;;5.23;2.30;;;12.90;82.70;;;;;;487236;244;28142;-75
2023/04/15 10:06:37;;;;;;;2.10;1.63;;;12.90;81.70;;;;;;487331;244;28343;-76
2023/04/15 10:08:39;;;;;;;3.03;2.20;;;13.00;83.20;;;;;;487294;244;28571;-76
2023/04/15 10:10:40;;;;;;;12.97;2.50;;;13.10;94.60;;;;;;487305;244;28545;-76
2023/04/15 10:12:41;;;;;;;6.37;2.10;;;13.10;83.50;;;;;;487287;244;29308;-76
2023/04/15 10:14:43;;;;;;;5.23;2.33;;;13.00;85.10;;;;;;487290;244;28946;-76
2023/04/15 10:16:44;;;;;;;5.13;2.33;;;12.90;81.50;;;;;;487297;244;29203;-75
2023/04/15 10:18:45;;;;;;;6.00;2.50;;;13.00;81.90;;;;;;487245;244;28502;-76
2023/04/15 10:20:46;;;;;;;4.77;1.90;;;12.40;95.10;;;;;;487244;244;28337;-76
2023/04/15 10:22:47;;;;;;;3.83;2.10;;;12.90;80.70;;;;;;487250;244;28323;-76
2023/04/15 10:24:49;;;;;;;4.40;2.10;;;13.10;83.70;;;;;;487219;244;28574;-76
2023/04/15 10:26:50;;;;;;;3.27;1.83;;;12.90;82.60;;;;;;487270;244;28967;-75
2023/04/15 10:28:52;;;;;;;6.87;2.67;;;13.00;84.00;;;;;;487276;243;28954;-76
2023/04/15 10:30:53;;;;;;;4.73;2.10;;;12.80;93.60;;;;;;487258;244;28339;-75
2023/04/15 10:32:54;;;;;;;4.70;2.60;;;12.80;79.90;;;;;;487252;244;28466;-75
2023/04/15 10:34:55;;;;;;;4.83;2.20;;;12.90;79.70;;;;;;487272;243;28505;-76
2023/04/15 10:36:56;;;;;;;4.23;2.30;;;13.00;90.70;;;;;;487263;244;28827;-76